Accueil
METAR-TAF:

METAR-TAF

Aéroports :

Oslo, Norvège

Aéroport d'Oslo-Gardermoen

latitude: 60-12N, longitude: 011-05E, altitude: 208 m

Observation

Le bulletin a été fait il y a 21 minutes, à 18:20 UTC
Vent 8 kt de sud, variant entre sud-est et sud/sud-ouest
Température 18°C
Humidité 32%
Pression 1011 hPa
Visibilité 10 km ou plus
pas de nuages en-dessous de 1500 mètres et pas de cumulonimbus.

METAR: ENGM 231820Z 18008KT 130V210 CAVOK 18/01 Q1011 NOSIG

Heure: 20:41 (18:41 UTC)

Prévision

Prévision valable du 23 à 18 UTC au 24 à 18 UTC
Vent 10 kt de sud
Visibilité 10 km ou plus
Quelques nuages à une hauteur de 4000 ft
Evoluant progressivement
du 23 à 20 UTC au 23 à 22 UTC
Vent 5 kt de direction variable

TAF: ENGM 2318/2418 17010KT 9999 FEW040 BECMG 2320/2322 VRB05KT

Observations et prévisions météorologiques de plus de 4000 aéroports (messages METAR et TAF).

Les stations disponibles sont représentées par des disques jaunes et rouges sur la carte.

Passer la souris dessus pour voir le nom de la station.

Cliquer dessus pour voir les observations et prévisions météorologiques.

Pour changer de carte: cliquez sur les boutons verts avec une croix noire pour zoomer, sur le bouton vert avec un tiret pour effectuer un zoom arrière, ou sur les flèches vertes pour les cartes adjacentes.


METAR-TAF: